Time;durP1;ratioP1;P1;durP2;ratioP2;P2;SDS_P1;SDS_P2;PMS_P1;PMS_P2;Temp;Humidity;BMP_temperature;BMP_pressure;BME280_temperature;BME280_humidity;BME280_pressure;Samples;Min_cycle;Max_cycle;Signal;HPM_P1;HPM_P2
2021/09/30 00:02:24;;;;;;;;;13.50;13.50;;;;;20.61;69.28;101586.66;146606;676;46017;-75
2021/09/30 00:04:58;;;;;;;;;16.00;15.25;;;;;20.61;69.28;101583.13;146610;729;46032;-74
2021/09/30 00:07:32;;;;;;;;;20.25;17.00;;;;;20.58;71.72;101576.03;146609;595;46016;-74
2021/09/30 00:10:07;;;;;;;;;18.50;16.00;;;;;20.51;70.18;101579.34;146606;596;46006;-74
2021/09/30 00:12:47;;;;;;;;;19.00;17.00;;;;;20.45;71.79;101584.47;146604;629;47010;-75
2021/09/30 00:15:34;;;;;;;;;17.25;16.00;;;;;20.41;71.09;101596.69;146612;629;46020;-75
2021/09/30 00:32:24;;;;;;;;;19.75;17.00;;;;;20.31;70.42;101584.12;146610;632;46017;-76
2021/09/30 00:35:59;;;;;;;;;16.00;15.50;;;;;20.23;70.56;101593.59;146604;574;47010;-78
2021/09/30 00:47:38;;;;;;;;;15.00;13.00;;;;;20.23;71.68;101583.06;146608;567;46017;-78
2021/09/30 00:50:24;;;;;;;;;17.50;16.50;;;;;20.21;71.60;101582.13;146608;573;46020;-78
2021/09/30 00:53:28;;;;;;;;;15.50;13.75;;;;;20.18;71.97;101593.44;146606;585;46017;-80
2021/09/30 01:57:55;;;;;;;;;13.25;12.25;;;;;19.71;71.88;101555.34;146610;581;46011;-84
2021/09/30 02:20:29;;;;;;;;;21.25;17.75;;;;;19.74;71.65;101558.94;146606;579;46020;-81
2021/09/30 02:38:56;;;;;;;;;20.25;19.00;;;;;19.63;71.61;101552.50;146608;617;46016;-82
2021/09/30 02:58:32;;;;;;;;;21.25;19.50;;;;;18.56;72.82;101389.94;146630;573;45018;-78
2021/09/30 03:01:17;;;;;;;;;15.25;15.25;;;;;19.58;72.71;101556.72;146635;645;45020;-78
2021/09/30 03:03:52;;;;;;;;;19.00;16.25;;;;;19.55;72.64;101554.00;146630;664;45016;-75
2021/09/30 03:06:29;;;;;;;;;19.25;18.00;;;;;19.53;72.90;101551.34;146629;650;45021;-76
2021/09/30 03:09:07;;;;;;;;;19.00;16.25;;;;;19.49;72.94;101562.63;146632;627;45010;-76
2021/09/30 03:11:43;;;;;;;;;13.75;13.75;;;;;19.44;73.23;101573.84;146634;675;45020;-76
2021/09/30 03:14:18;;;;;;;;;17.75;16.00;;;;;19.41;72.73;101571.12;146631;706;45016;-77
2021/09/30 03:17:01;;;;;;;;;16.75;16.00;;;;;19.43;72.21;101569.44;146635;593;45008;-77
2021/09/30 03:19:59;;;;;;;;;16.25;16.00;;;;;19.44;72.14;101572.13;146627;608;45903;-77
2021/09/30 03:22:34;;;;;;;;;17.25;16.75;;;;;19.50;71.97;101574.03;146632;644;45020;-77
2021/09/30 03:25:09;;;;;;;;;16.75;16.00;;;;;19.52;72.02;101567.97;146631;583;45020;-76
2021/09/30 03:27:43;;;;;;;;;17.50;16.25;;;;;19.56;72.30;101576.81;146634;611;46010;-77
2021/09/30 03:30:17;;;;;;;;;17.25;17.25;;;;;19.57;72.17;101561.09;146631;565;45017;-76
2021/09/30 03:32:51;;;;;;;;;16.50;16.50;;;;;19.58;71.86;101568.13;146624;612;46020;-77
2021/09/30 03:35:27;;;;;;;;;14.00;13.75;;;;;19.60;72.22;101569.09;146630;582;45903;-77
2021/09/30 03:38:03;;;;;;;;;14.00;14.00;;;;;19.60;71.96;101568.19;146634;627;45008;-77
2021/09/30 03:40:37;;;;;;;;;17.25;15.25;;;;;19.61;71.51;101564.69;146606;584;46016;-82
2021/09/30 03:43:11;;;;;;;;;19.00;19.00;;;;;19.61;71.64;101565.59;146613;594;46021;-78
2021/09/30 03:45:45;;;;;;;;;16.00;15.25;;;;;19.64;71.15;101571.78;146608;612;47010;-78
2021/09/30 03:48:19;;;;;;;;;15.25;15.25;;;;;19.64;71.01;101567.44;146613;637;46020;-77
2021/09/30 03:51:11;;;;;;;;;19.00;16.25;;;;;19.65;71.56;101566.59;146606;567;46016;-76
2021/09/30 03:54:11;;;;;;;;;16.75;16.25;;;;;19.65;72.08;101571.84;146608;707;46034;-76
2021/09/30 03:59:37;;;;;;;;;18.50;18.25;;;;;19.54;72.05;101581.19;146605;713;46008;-79
2021/09/30 04:02:11;;;;;;;;;20.00;15.25;;;;;19.50;72.15;101577.56;146612;628;46010;-78
2021/09/30 04:04:45;;;;;;;;;19.50;18.50;;;;;19.51;72.08;101573.19;146610;731;47008;-80
2021/09/30 04:07:19;;;;;;;;;16.25;14.75;;;;;19.51;71.70;101576.72;146605;591;47010;-80
2021/09/30 04:09:54;;;;;;;;;14.75;13.75;;;;;19.52;72.52;101569.72;146613;611;46020;-80
2021/09/30 04:12:28;;;;;;;;;18.25;16.75;;;;;19.53;72.09;101572.41;146610;583;46017;-78
2021/09/30 04:15:02;;;;;;;;;20.50;18.50;;;;;19.52;72.72;101574.97;146609;616;47012;-77
2021/09/30 04:17:36;;;;;;;;;17.75;17.25;;;;;19.50;71.35;101572.31;146606;659;46016;-78
2021/09/30 04:20:12;;;;;;;;;22.50;21.00;;;;;19.52;71.24;101575.84;146612;571;46021;-80
2021/09/30 04:22:49;;;;;;;;;20.75;19.00;;;;;19.54;72.19;101586.44;146605;591;47010;-81
2021/09/30 04:25:23;;;;;;;;;17.50;15.75;;;;;19.51;71.99;101589.87;146602;572;46020;-80
2021/09/30 04:27:57;;;;;;;;;22.25;18.00;;;;;19.45;71.26;101586.16;146610;570;46029;-78
2021/09/30 04:30:31;;;;;;;;;17.00;16.50;;;;;19.42;71.12;101586.09;146611;563;46020;-79
2021/09/30 04:33:05;;;;;;;;;16.00;14.00;;;;;19.39;71.01;101593.03;146605;617;47010;-78
2021/09/30 04:35:39;;;;;;;;;17.50;15.25;;;;;19.41;72.12;101595.72;146604;578;47008;-78
2021/09/30 04:38:14;;;;;;;;;19.00;18.00;;;;;19.38;72.02;101587.75;146609;630;46016;-78
2021/09/30 04:40:48;;;;;;;;;15.50;14.50;;;;;19.33;71.14;101591.97;146609;619;45020;-78
2021/09/30 04:43:22;;;;;;;;;13.25;12.00;;;;;19.31;70.83;101591.91;146607;619;46017;-76
2021/09/30 04:45:56;;;;;;;;;14.75;12.25;;;;;19.32;71.70;101590.19;146613;564;46010;-77
2021/09/30 04:48:30;;;;;;;;;12.50;11.75;;;;;19.28;71.12;101577.78;146605;656;46016;-78
2021/09/30 04:51:04;;;;;;;;;10.50;9.25;;;;;19.30;71.37;101589.25;146605;721;46021;-75
2021/09/30 04:53:39;;;;;;;;;15.75;12.50;;;;;19.32;70.28;101588.44;146616;632;46016;-75
2021/09/30 04:56:13;;;;;;;;;15.00;11.25;;;;;19.37;70.54;101594.72;146612;563;46020;-77
2021/09/30 04:58:47;;;;;;;;;10.25;10.25;;;;;19.44;70.30;101592.25;146606;619;48018;-78
2021/09/30 05:01:21;;;;;;;;;13.00;11.75;;;;;19.51;70.57;101597.75;146611;569;46010;-78
2021/09/30 05:03:55;;;;;;;;;10.67;10.67;;;;;19.61;70.74;101609.44;146611;591;46018;-78
2021/09/30 05:06:29;;;;;;;;;13.25;11.50;;;;;19.90;70.94;101604.09;146609;569;47012;-78
2021/09/30 05:09:03;;;;;;;;;10.25;10.25;;;;;20.46;69.58;101608.22;146606;624;46016;-78
2021/09/30 05:11:46;;;;;;;;;16.25;15.75;;;;;21.13;68.05;101608.94;146610;613;46021;-78
2021/09/30 05:14:20;;;;;;;;;19.50;16.50;;;;;21.76;66.05;101612.03;146609;601;46017;-79
2021/09/30 05:16:54;;;;;;;;;15.75;14.75;;;;;22.07;64.52;101605.56;146604;569;46008;-73
2021/09/30 05:19:28;;;;;;;;;15.00;13.25;;;;;22.31;63.70;101621.91;146605;604;46903;-73
2021/09/30 05:22:02;;;;;;;;;13.00;11.67;;;;;22.34;63.12;101611.38;146613;587;46020;-70
2021/09/30 05:24:37;;;;;;;;;10.67;9.67;;;;;22.29;62.80;101617.44;146608;570;47020;-70
2021/09/30 05:27:11;;;;;;;;;14.33;11.67;;;;;22.21;62.93;101624.34;146619;623;47008;-70
2021/09/30 05:29:45;;;;;;;;;15.50;15.25;;;;;22.13;63.14;101629.47;146607;662;47903;-70
2021/09/30 05:32:19;;;;;;;;;13.50;13.00;;;;;21.99;62.90;101623.03;146612;687;47006;-70
2021/09/30 05:34:53;;;;;;;;;12.33;10.67;;;;;21.78;63.81;101629.69;146607;639;47904;-69
2021/09/30 05:37:28;;;;;;;;;14.33;13.33;;;;;21.60;64.63;101627.56;146613;615;46020;-70
2021/09/30 05:40:03;;;;;;;;;13.50;13.50;;;;;21.42;65.31;101632.47;146609;612;47010;-69
2021/09/30 05:42:37;;;;;;;;;14.75;11.25;;;;;21.24;65.69;101635.53;146610;649;45022;-70
2021/09/30 05:45:13;;;;;;;;;14.75;14.00;;;;;21.01;65.30;101648.22;146609;570;46016;-71
2021/09/30 05:47:51;;;;;;;;;12.00;10.75;;;;;20.85;65.37;101648.72;146612;653;46020;-70
2021/09/30 05:50:28;;;;;;;;;11.75;11.75;;;;;20.78;66.07;101652.97;146610;628;46903;-70
2021/09/30 05:53:02;;;;;;;;;10.75;10.25;;;;;20.81;65.77;101654.75;146612;639;47006;-70
2021/09/30 05:55:36;;;;;;;;;12.75;11.25;;;;;20.78;65.47;101652.97;146609;569;46016;-71
2021/09/30 05:58:10;;;;;;;;;10.00;9.33;;;;;20.74;65.52;101648.44;146614;578;46008;-71
2021/09/30 06:01:12;;;;;;;;;11.67;10.33;;;;;20.68;65.87;101651.81;146616;563;46016;-71
2021/09/30 06:12:48;;;;;;;;;13.50;11.50;;;;;20.80;64.90;101658.25;146611;598;47010;-70
2021/09/30 06:15:32;;;;;;;;;12.00;12.00;;;;;20.76;65.17;101662.56;146610;572;47008;-70
2021/09/30 06:18:07;;;;;;;;;13.00;12.00;;;;;20.74;65.20;101662.50;146606;571;47010;-70
2021/09/30 06:20:41;;;;;;;;;13.33;11.00;;;;;20.68;65.37;101664.13;146612;565;46021;-71
2021/09/30 06:23:15;;;;;;;;;9.33;9.33;;;;;20.62;66.08;101675.38;146608;627;47010;-71
2021/09/30 06:25:49;;;;;;;;;10.67;9.67;;;;;20.59;65.73;101670.06;146619;636;46020;-71
2021/09/30 06:28:24;;;;;;;;;7.25;7.25;;;;;20.52;65.89;101668.09;146613;599;46025;-71
2021/09/30 06:30:57;;;;;;;;;10.67;8.67;;;;;20.50;65.46;101668.06;146619;584;46020;-71
2021/09/30 06:33:31;;;;;;;;;15.00;11.50;;;;;20.52;65.37;101666.34;146613;661;47010;-70
2021/09/30 06:36:06;;;;;;;;;14.67;10.67;;;;;20.59;65.69;101667.44;146604;621;47008;-70
2021/09/30 06:38:40;;;;;;;;;10.50;10.25;;;;;20.64;64.60;101663.16;146610;582;46010;-71
2021/09/30 06:41:14;;;;;;;;;11.67;10.67;;;;;20.70;64.72;101663.31;146608;645;47008;-70
2021/09/30 06:43:48;;;;;;;;;10.25;10.25;;;;;20.75;64.30;101666.06;146606;587;46017;-70
2021/09/30 06:46:27;;;;;;;;;11.75;11.00;;;;;20.75;65.04;101660.81;146609;584;46020;-71
2021/09/30 06:49:01;;;;;;;;;11.67;10.33;;;;;20.83;64.80;101661.84;146609;644;46017;-70
2021/09/30 06:51:35;;;;;;;;;15.75;14.00;;;;;20.89;64.44;101659.38;146609;632;46008;-70
2021/09/30 06:54:09;;;;;;;;;12.25;11.75;;;;;20.95;64.81;101658.62;146609;569;46016;-70
2021/09/30 06:56:48;;;;;;;;;12.75;11.75;;;;;20.98;64.68;101659.59;146613;687;46021;-70
2021/09/30 06:59:23;;;;;;;;;13.00;13.00;;;;;21.05;64.49;101657.09;146608;623;46016;-70
2021/09/30 07:01:57;;;;;;;;;19.00;17.50;;;;;21.11;64.79;101665.16;146605;694;46020;-71
2021/09/30 07:04:31;;;;;;;;;14.75;14.50;;;;;21.16;64.42;101663.50;146609;622;46017;-71
2021/09/30 07:07:07;;;;;;;;;20.00;16.25;;;;;21.18;64.22;101667.06;146608;569;47008;-70
2021/09/30 07:09:41;;;;;;;;;18.50;17.25;;;;;21.17;64.33;101670.56;146607;643;46016;-70
2021/09/30 07:12:15;;;;;;;;;17.25;16.00;;;;;21.23;64.58;101676.88;146611;620;46008;-70
2021/09/30 07:14:49;;;;;;;;;14.00;14.00;;;;;21.28;64.40;101676.06;146607;577;47010;-70
2021/09/30 07:17:24;;;;;;;;;12.50;12.50;;;;;20.36;64.46;101513.12;146610;622;46020;-71
2021/09/30 07:19:58;;;;;;;;;20.50;17.25;;;;;21.35;64.79;101670.09;146609;646;45903;-70
2021/09/30 07:22:32;;;;;;;;;20.25;18.50;;;;;21.34;64.87;101678.84;146612;588;46020;-70
2021/09/30 07:25:10;;;;;;;;;19.75;16.00;;;;;21.30;63.82;101671.72;146607;597;46016;-70
2021/09/30 07:27:44;;;;;;;;;20.50;16.00;;;;;21.31;63.54;101665.59;146606;634;47012;-70
2021/09/30 07:30:18;;;;;;;;;17.75;15.50;;;;;21.35;63.47;101668.38;146608;613;47018;-70
2021/09/30 07:32:54;;;;;;;;;19.25;16.25;;;;;21.40;63.75;101668.47;146609;587;47008;-70
2021/09/30 07:35:29;;;;;;;;;19.00;17.75;;;;;21.45;63.49;101672.09;146607;678;46024;-70
2021/09/30 07:38:03;;;;;;;;;16.00;14.25;;;;;21.48;63.96;101672.16;146609;615;47012;-70
2021/09/30 07:40:37;;;;;;;;;18.75;15.75;;;;;21.51;63.38;101677.50;146604;641;46017;-70
2021/09/30 07:43:11;;;;;;;;;16.50;14.50;;;;;21.50;63.28;101670.47;146612;612;46021;-70
2021/09/30 07:45:45;;;;;;;;;16.75;14.25;;;;;21.52;63.45;101681.91;146609;675;47018;-70
2021/09/30 07:48:19;;;;;;;;;15.00;13.75;;;;;21.53;63.52;101669.66;146611;687;47009;-70
2021/09/30 07:50:54;;;;;;;;;15.67;14.33;;;;;21.54;63.58;101676.69;146606;592;47010;-70
2021/09/30 07:53:28;;;;;;;;;15.33;13.33;;;;;21.54;63.12;101671.41;146605;625;47012;-70
2021/09/30 07:56:02;;;;;;;;;14.50;12.50;;;;;21.56;62.95;101675.88;146609;697;47903;-70
2021/09/30 07:58:36;;;;;;;;;12.50;10.75;;;;;21.53;61.44;101680.19;146609;668;47010;-70
2021/09/30 08:01:10;;;;;;;;;13.00;12.00;;;;;21.47;62.59;101686.22;146610;572;46016;-70
2021/09/30 08:03:44;;;;;;;;;13.00;11.00;;;;;21.44;62.91;101675.59;146612;594;46021;-70
2021/09/30 08:06:19;;;;;;;;;12.00;12.00;;;;;21.45;62.45;101683.53;146612;569;45903;-71
2021/09/30 08:09:00;;;;;;;;;12.33;11.33;;;;;21.51;62.36;101682.78;146608;580;46020;-70
2021/09/30 08:11:34;;;;;;;;;11.33;11.33;;;;;21.58;62.31;101679.41;146609;655;47010;-70
2021/09/30 08:14:09;;;;;;;;;12.00;11.00;;;;;21.68;62.55;101684.06;146613;626;46010;-70
2021/09/30 08:16:43;;;;;;;;;13.25;11.50;;;;;21.77;61.91;101685.97;146606;693;47010;-69
2021/09/30 08:19:17;;;;;;;;;10.67;9.00;;;;;21.82;61.90;101686.97;146606;683;46021;-71
2021/09/30 08:21:51;;;;;;;;;10.75;10.25;;;;;21.87;61.19;101689.72;146607;570;47010;-70
2021/09/30 08:24:25;;;;;;;;;9.33;9.33;;;;;21.89;61.60;101694.13;146614;587;46020;-70
2021/09/30 08:26:59;;;;;;;;;14.00;11.50;;;;;21.91;61.00;101700.34;146613;648;46016;-70
2021/09/30 08:29:35;;;;;;;;;12.33;11.00;;;;;21.92;61.77;101696.84;146615;583;46008;-71
2021/09/30 08:32:10;;;;;;;;;9.00;9.00;;;;;21.96;61.32;101702.19;146610;570;46010;-76
2021/09/30 08:34:44;;;;;;;;;9.75;9.75;;;;;21.97;60.98;101707.50;146617;577;47008;-75
2021/09/30 08:37:18;;;;;;;;;9.00;9.00;;;;;21.95;60.75;101711.87;146609;579;47016;-76
2021/09/30 08:39:52;;;;;;;;;14.33;10.67;;;;;21.94;59.99;101709.22;146610;653;46021;-75
2021/09/30 08:42:27;;;;;;;;;12.67;10.00;;;;;21.88;60.63;101712.59;146610;603;46010;-76
2021/09/30 08:45:01;;;;;;;;;9.00;9.00;;;;;21.82;60.00;101721.28;146605;634;47012;-75
2021/09/30 08:47:35;;;;;;;;;9.33;9.33;;;;;21.78;60.05;101718.56;146613;583;46017;-76
2021/09/30 08:50:09;;;;;;;;;11.33;11.33;;;;;21.72;60.85;101713.16;146618;572;46020;-77
2021/09/30 08:52:45;;;;;;;;;11.33;11.00;;;;;21.68;61.11;101718.37;146610;611;46016;-77
2021/09/30 08:55:19;;;;;;;;;11.33;10.00;;;;;21.66;61.62;101709.50;146612;630;47010;-75
2021/09/30 08:57:55;;;;;;;;;11.33;9.00;;;;;21.66;61.23;101716.53;146605;569;47010;-76
2021/09/30 09:00:29;;;;;;;;;10.67;9.00;;;;;21.61;60.23;101705.88;146620;627;46008;-76
2021/09/30 09:03:03;;;;;;;;;8.33;8.33;;;;;21.64;60.10;101711.22;146617;645;47012;-77
2021/09/30 09:05:43;;;;;;;;;10.33;10.00;;;;;21.65;60.44;101720.94;146619;596;46020;-77
2021/09/30 09:08:17;;;;;;;;;7.67;7.67;;;;;21.64;60.39;101715.59;146611;569;46016;-76
2021/09/30 09:10:55;;;;;;;;;10.67;9.00;;;;;21.64;58.97;101711.22;146607;645;47010;-75
2021/09/30 09:13:30;;;;;;;;;8.00;7.67;;;;;21.63;60.29;101711.19;146620;573;46016;-75
2021/09/30 09:16:09;;;;;;;;;12.33;10.00;;;;;21.61;59.42;101715.53;146618;586;47006;-77
2021/09/30 09:18:46;;;;;;;;;10.33;8.67;;;;;21.62;59.26;101712.94;146610;576;46025;-78
2021/09/30 09:21:23;;;;;;;;;9.67;8.00;;;;;21.61;59.42;101705.00;146617;622;46020;-76
2021/09/30 09:24:01;;;;;;;;;12.00;9.00;;;;;21.63;59.74;101713.84;146612;586;46017;-76
2021/09/30 09:26:42;;;;;;;;;10.00;10.00;;;;;21.60;59.76;101713.78;146620;599;46008;-76
2021/09/30 09:29:20;;;;;;;;;9.00;9.00;;;;;21.59;59.67;101707.59;146608;582;46016;-76
2021/09/30 09:31:56;;;;;;;;;9.00;9.00;;;;;21.59;59.19;101712.88;146622;624;46027;-74
2021/09/30 09:34:39;;;;;;;;;11.33;10.33;;;;;21.62;59.74;101705.03;146606;569;47010;-75
2021/09/30 09:37:31;;;;;;;;;10.00;10.00;;;;;21.67;59.44;101705.13;146604;604;48008;-76
2021/09/30 09:40:21;;;;;;;;;12.00;12.00;;;;;21.68;59.74;101723.66;146607;597;46023;-75
2021/09/30 09:42:55;;;;;;;;;12.67;12.00;;;;;21.70;58.99;101721.03;146612;609;46020;-74
2021/09/30 09:45:29;;;;;;;;;10.00;10.00;;;;;21.73;59.06;101717.56;146607;620;46016;-74
2021/09/30 09:48:03;;;;;;;;;10.67;10.00;;;;;21.74;59.14;101724.63;146615;589;46010;-72
2021/09/30 09:50:37;;;;;;;;;12.33;10.00;;;;;21.72;57.91;101718.44;146608;623;47903;-76
2021/09/30 09:53:11;;;;;;;;;10.67;10.33;;;;;21.68;57.86;101723.66;146612;581;47008;-75
2021/09/30 09:55:46;;;;;;;;;12.00;9.00;;;;;21.62;57.47;101722.59;146612;594;46016;-74
2021/09/30 09:58:21;;;;;;;;;8.67;8.67;;;;;21.52;57.95;101721.50;146621;576;46008;-76
2021/09/30 10:01:06;;;;;;;;;13.00;9.67;;;;;21.44;57.65;101723.09;146618;569;46018;-76
2021/09/30 10:03:41;;;;;;;;;9.33;9.33;;;;;21.36;56.86;101716.75;146602;588;47012;-76
2021/09/30 10:06:15;;;;;;;;;8.67;8.67;;;;;21.26;54.15;101722.63;146615;602;46016;-77
2021/09/30 10:08:49;;;;;;;;;6.67;6.67;;;;;21.18;55.80;101725.09;146618;582;46021;-75
2021/09/30 10:11:25;;;;;;;;;9.00;8.00;;;;;21.11;55.92;101712.63;146617;565;46010;-76
2021/09/30 10:14:02;;;;;;;;;10.00;10.00;;;;;21.08;58.13;101718.69;146620;580;46020;-76
2021/09/30 10:16:42;;;;;;;;;10.67;9.33;;;;;21.12;58.60;101728.50;146610;637;47010;-75
2021/09/30 10:19:17;;;;;;;;;8.33;7.33;;;;;21.16;58.43;101725.06;146620;576;45025;-76
2021/09/30 10:21:51;;;;;;;;;9.33;8.00;;;;;21.20;56.43;101729.53;146618;576;46018;-76
2021/09/30 10:24:27;;;;;;;;;11.67;10.67;;;;;21.15;56.94;101725.00;146618;672;46020;-76
2021/09/30 10:27:06;;;;;;;;;8.67;8.67;;;;;21.08;56.51;101729.25;146609;572;46016;-76
2021/09/30 10:29:46;;;;;;;;;8.33;7.67;;;;;21.04;56.56;101711.56;146606;610;46020;-75
2021/09/30 10:32:28;;;;;;;;;9.67;8.33;;;;;21.03;54.58;101714.16;146614;634;47010;-76
2021/09/30 10:35:07;;;;;;;;;8.33;7.33;;;;;21.06;56.53;101714.25;146619;644;46020;-75
2021/09/30 10:37:42;;;;;;;;;9.67;8.67;;;;;21.09;56.44;101704.69;146615;651;47010;-75
2021/09/30 10:40:26;;;;;;;;;11.33;8.33;;;;;21.12;56.77;101707.41;146620;588;46020;-76
2021/09/30 10:43:01;;;;;;;;;9.33;8.33;;;;;21.16;57.72;101706.59;146613;594;46016;-76
2021/09/30 10:45:44;;;;;;;;;10.67;9.67;;;;;21.22;57.25;101700.59;146619;571;46010;-75
2021/09/30 10:48:43;;;;;;;;;9.00;9.00;;;;;20.20;58.14;101502.22;146617;610;46016;-75
2021/09/30 10:51:18;;;;;;;;;9.67;9.00;;;;;21.36;56.50;101696.53;146620;614;46020;-76
2021/09/30 10:54:01;;;;;;;;;9.67;8.00;;;;;21.42;57.09;101699.31;146613;571;46017;-75
2021/09/30 10:56:40;;;;;;;;;8.67;8.33;;;;;21.47;56.70;101703.81;146609;569;46020;-75
2021/09/30 10:59:43;;;;;;;;;7.67;7.67;;;;;20.38;56.89;101501.78;146618;615;47010;-75
2021/09/30 11:02:17;;;;;;;;;10.67;7.00;;;;;21.44;53.74;101694.06;146616;651;46020;-76
2021/09/30 11:05:12;;;;;;;;;7.25;6.00;;;;;21.38;54.60;101699.22;146614;626;46016;-75
2021/09/30 11:07:46;;;;;;;;;8.33;8.00;;;;;21.32;54.54;101685.84;146623;584;46012;-76
2021/09/30 11:10:25;;;;;;;;;9.00;7.67;;;;;21.36;55.94;101691.25;146614;662;46018;-76
2021/09/30 11:13:28;;;;;;;;;8.33;7.33;;;;;21.38;54.22;101699.22;146623;595;46008;-76
2021/09/30 11:16:39;;;;;;;;;7.00;7.00;;;;;21.35;53.44;101699.13;146617;576;46925;-75
2021/09/30 11:19:43;;;;;;;;;10.33;8.33;;;;;20.10;52.43;101481.81;146616;601;46020;-75
2021/09/30 11:22:17;;;;;;;;;10.00;7.33;;;;;21.22;53.95;101675.09;146615;572;46017;-76
2021/09/30 11:24:57;;;;;;;;;7.67;7.33;;;;;21.22;55.33;101676.84;146611;619;46010;-75
2021/09/30 11:27:35;;;;;;;;;5.75;5.75;;;;;21.25;54.83;101674.28;146612;603;46016;-76
2021/09/30 11:30:25;;;;;;;;;6.67;6.67;;;;;21.27;54.16;101672.53;146614;604;46021;-76
2021/09/30 11:32:59;;;;;;;;;6.00;6.00;;;;;21.29;52.17;101675.22;146613;600;46016;-76
2021/09/30 11:35:34;;;;;;;;;5.00;4.00;;;;;21.28;51.55;101670.78;146621;572;46027;-77
2021/09/30 11:38:08;;;;;;;;;9.00;8.00;;;;;21.21;51.05;101665.41;146613;590;46017;-76
2021/09/30 11:40:42;;;;;;;;;7.67;7.67;;;;;21.19;52.31;101675.03;146622;618;46006;-77
2021/09/30 11:43:16;;;;;;;;;8.00;8.00;;;;;21.13;51.81;101671.34;146618;651;46016;-77
2021/09/30 11:45:50;;;;;;;;;7.00;7.00;;;;;21.12;52.92;101666.91;146622;609;46020;-77
2021/09/30 11:48:24;;;;;;;;;9.00;8.33;;;;;21.10;53.03;101672.16;146618;600;46010;-78
2021/09/30 11:51:01;;;;;;;;;8.33;7.67;;;;;21.09;51.93;101669.47;146608;574;46021;-76
2021/09/30 11:53:35;;;;;;;;;10.00;8.00;;;;;21.09;52.96;101673.03;146614;673;46016;-76
2021/09/30 11:56:10;;;;;;;;;8.33;7.00;;;;;21.08;52.48;101667.72;146619;698;47006;-75
2021/09/30 11:58:44;;;;;;;;;9.00;8.00;;;;;21.10;52.36;101672.16;146615;643;47010;-77
2021/09/30 12:01:45;;;;;;;;;8.25;8.25;;;;;21.13;54.53;101669.59;146618;620;47008;-76
2021/09/30 12:04:38;;;;;;;;;8.00;7.67;;;;;21.21;54.04;101664.50;146615;572;47904;-77
2021/09/30 12:07:26;;;;;;;;;7.67;7.67;;;;;21.30;53.37;101661.19;146616;595;46021;-74
2021/09/30 12:10:03;;;;;;;;;9.33;8.67;;;;;21.35;53.22;101649.91;146617;566;46016;-75
2021/09/30 12:12:40;;;;;;;;;6.67;6.67;;;;;21.40;54.19;101650.91;146619;592;46020;-75
2021/09/30 12:15:16;;;;;;;;;6.33;6.33;;;;;21.49;53.88;101649.31;146615;569;47010;-74
2021/09/30 12:17:49;;;;;;;;;9.00;9.00;;;;;21.59;54.25;101651.31;146609;583;46020;-76
2021/09/30 12:20:25;;;;;;;;;7.00;5.00;;;;;21.72;53.92;101648.03;146617;614;46017;-75
2021/09/30 12:23:05;;;;;;;;;3.00;3.00;;;;;21.81;54.57;101650.00;146618;625;46020;-74
2021/09/30 12:25:39;;;;;;;;;8.33;7.67;;;;;21.90;53.73;101642.25;146613;618;46016;-75
2021/09/30 12:28:13;;;;;;;;;9.75;9.00;;;;;22.01;53.00;101643.31;146618;694;47006;-75
2021/09/30 12:30:47;;;;;;;;;10.67;9.00;;;;;22.13;52.69;101637.37;146615;653;46017;-75
2021/09/30 12:33:21;;;;;;;;;11.50;8.00;;;;;22.27;52.99;101635.91;146618;571;46020;-75
2021/09/30 12:35:55;;;;;;;;;10.75;7.25;;;;;22.39;50.95;101640.50;146603;678;46017;-77
2021/09/30 12:38:29;;;;;;;;;8.00;8.00;;;;;22.44;50.62;101628.28;146619;600;46020;-75
2021/09/30 12:41:05;;;;;;;;;7.25;6.50;;;;;22.49;51.68;101631.91;146617;665;46012;-74
2021/09/30 12:43:44;;;;;;;;;9.67;8.33;;;;;22.55;51.80;101634.66;146608;622;46021;-75
2021/09/30 12:46:19;;;;;;;;;11.33;9.33;;;;;22.65;49.33;101626.84;146607;628;48016;-74
2021/09/30 12:48:52;;;;;;;;;9.00;7.67;;;;;22.76;48.95;101620.88;146620;648;45050;-76
2021/09/30 12:51:29;;;;;;;;;10.00;9.00;;;;;22.78;49.21;101626.19;146616;630;47010;-77
2021/09/30 12:54:03;;;;;;;;;7.67;7.67;;;;;22.73;48.58;101619.94;146621;692;46020;-76
2021/09/30 12:56:39;;;;;;;;;8.00;7.00;;;;;22.60;47.81;101619.72;146606;586;46017;-76
2021/09/30 12:59:20;;;;;;;;;9.00;8.25;;;;;22.36;50.52;101593.78;146615;604;46021;-76
2021/09/30 13:02:07;;;;;;;;;8.00;7.00;;;;;22.44;47.97;101616.81;146616;629;46903;-77
2021/09/30 13:04:56;;;;;;;;;11.00;8.67;;;;;22.54;50.52;101618.75;146619;623;46021;-76
2021/09/30 13:07:45;;;;;;;;;5.67;5.67;;;;;22.56;50.75;101587.97;146616;571;46016;-75
2021/09/30 13:10:21;;;;;;;;;11.00;9.00;;;;;23.00;49.92;101620.37;146606;587;46020;-76
2021/09/30 13:13:12;;;;;;;;;9.00;9.00;;;;;23.31;51.25;101610.22;146609;576;47018;-76
2021/09/30 13:15:50;;;;;;;;;8.00;8.00;;;;;23.62;49.12;101616.78;146619;583;46020;-76
2021/09/30 13:18:25;;;;;;;;;5.00;5.00;;;;;23.72;46.35;101600.16;146614;584;46025;-76
2021/09/30 13:21:11;;;;;;;;;7.33;6.67;;;;;23.66;45.45;101601.81;146619;599;47008;-77
2021/09/30 13:23:54;;;;;;;;;9.00;7.00;;;;;23.57;46.99;101607.00;146615;609;46010;-76
2021/09/30 13:26:28;;;;;;;;;9.33;8.00;;;;;23.37;45.94;101597.06;146621;569;46020;-77
2021/09/30 13:29:03;;;;;;;;;7.67;6.33;;;;;23.27;47.45;101608.38;146610;606;46017;-75
2021/09/30 13:31:56;;;;;;;;;10.00;7.00;;;;;23.12;46.41;101592.34;146621;581;46020;-76
2021/09/30 13:34:30;;;;;;;;;9.00;7.67;;;;;23.04;48.40;101595.75;146615;627;46017;-76
2021/09/30 13:37:04;;;;;;;;;7.33;6.67;;;;;23.03;48.67;101590.44;146607;658;46020;-76
2021/09/30 13:39:38;;;;;;;;;9.67;8.00;;;;;;;;146606;639;48016;-76
2021/09/30 13:42:12;;;;;;;;;7.00;7.00;;;;;23.16;48.54;101588.84;146620;632;46018;-76
2021/09/30 13:44:46;;;;;;;;;7.00;5.33;;;;;23.06;46.29;101585.19;146615;569;47012;-76
2021/09/30 13:47:20;;;;;;;;;8.00;5.00;;;;;22.92;46.27;101587.59;146619;592;46018;-77
2021/09/30 13:49:54;;;;;;;;;8.67;6.00;;;;;22.70;46.78;101601.38;146613;578;47013;-76
2021/09/30 13:52:29;;;;;;;;;10.00;7.67;;;;;22.47;47.60;101590.44;146621;699;45018;-75
2021/09/30 13:55:03;;;;;;;;;8.33;6.33;;;;;22.27;45.85;101598.03;146616;663;46018;-77
2021/09/30 13:57:38;;;;;;;;;9.00;9.00;;;;;22.17;49.02;101602.25;146619;615;46019;-75
2021/09/30 14:00:14;;;;;;;;;8.00;7.00;;;;;22.08;49.56;101596.78;146614;600;46018;-75
2021/09/30 14:02:51;;;;;;;;;8.67;7.00;;;;;22.04;50.53;101590.56;146607;626;46010;-76
2021/09/30 14:05:25;;;;;;;;;7.00;5.00;;;;;22.07;50.55;101592.38;146616;595;47012;-75
2021/09/30 14:07:59;;;;;;;;;7.33;6.67;;;;;22.12;50.60;101593.34;146617;569;46018;-76
2021/09/30 14:10:33;;;;;;;;;6.00;5.67;;;;;22.15;49.86;101593.41;146614;643;47020;-76
2021/09/30 14:13:07;;;;;;;;;6.67;6.33;;;;;22.18;49.97;101588.22;146619;584;46011;-76
2021/09/30 14:15:41;;;;;;;;;10.00;9.00;;;;;22.22;50.44;101581.22;146617;598;47012;-76
2021/09/30 14:18:15;;;;;;;;;9.33;8.00;;;;;22.25;50.12;101589.22;146619;639;46018;-76
2021/09/30 14:20:51;;;;;;;;;11.00;9.00;;;;;22.28;50.28;101579.56;146616;649;46019;-76
2021/09/30 14:23:25;;;;;;;;;11.00;10.00;;;;;22.33;50.77;101579.63;146617;577;46018;-75
2021/09/30 14:26:00;;;;;;;;;8.25;7.25;;;;;22.37;50.25;101584.12;146609;643;47012;-76
2021/09/30 14:28:34;;;;;;;;;8.33;7.67;;;;;22.39;51.70;101574.47;146609;583;46019;-76
2021/09/30 14:31:09;;;;;;;;;9.67;7.00;;;;;22.36;51.86;101572.66;146618;589;46018;-77
2021/09/30 14:33:43;;;;;;;;;10.25;8.00;;;;;22.30;50.88;101582.22;146617;614;46010;-76